Time;durP1;ratioP1;P1;durP2;ratioP2;P2;SDS_P1;SDS_P2;PMS_P1;PMS_P2;Temp;Humidity;BMP_temperature;BMP_pressure;BME280_temperature;BME280_humidity;BME280_pressure;Samples;Min_cycle;Max_cycle;Signal;HPM_P1;HPM_P2
2022/02/16 00:01:37;;;;;;;17.63;9.43;;;4.40;83.60;;;;;;5023745;28;20188;-80
2022/02/16 00:04:02;;;;;;;14.93;9.63;;;4.40;83.50;;;;;;5024837;28;20533;-80
2022/02/16 00:06:28;;;;;;;13.23;9.03;;;4.40;83.80;;;;;;5022088;28;20211;-80
2022/02/16 00:08:54;;;;;;;15.33;8.80;;;4.40;83.80;;;;;;5028546;28;20187;-82
2022/02/16 00:11:20;;;;;;;11.10;7.07;;;4.30;83.90;;;;;;5027047;28;20373;-80
2022/02/16 00:13:45;;;;;;;16.80;8.77;;;4.20;83.90;;;;;;5031514;28;20193;-79
2022/02/16 00:16:11;;;;;;;13.93;9.00;;;4.20;84.10;;;;;;5032240;28;20212;-81
2022/02/16 00:18:38;;;;;;;13.87;7.17;;;4.20;84.20;;;;;;5031075;28;20629;-81
2022/02/16 00:21:05;;;;;;;12.40;7.23;;;4.20;84.20;;;;;;5027087;28;20195;-82
2022/02/16 00:23:31;;;;;;;14.53;8.30;;;4.20;84.10;;;;;;5022551;28;20216;-81
2022/02/16 00:25:59;;;;;;;19.70;9.50;;;4.20;84.30;;;;;;5026127;28;20189;-82
2022/02/16 00:28:26;;;;;;;14.03;7.43;;;4.20;84.50;;;;;;5021741;28;20239;-81
2022/02/16 00:30:52;;;;;;;12.57;8.20;;;4.10;84.60;;;;;;5023021;28;20189;-81
2022/02/16 00:33:18;;;;;;;12.13;7.80;;;4.10;84.70;;;;;;5021716;28;20893;-82
2022/02/16 00:35:44;;;;;;;20.93;9.40;;;4.10;84.80;;;;;;5019930;28;20816;-81
2022/02/16 00:38:09;;;;;;;14.57;8.47;;;4.10;84.90;;;;;;5006215;28;20275;-82
2022/02/16 00:40:35;;;;;;;17.20;9.03;;;4.10;84.80;;;;;;5006500;28;20683;-81
2022/02/16 00:43:01;;;;;;;10.67;7.13;;;4.00;84.80;;;;;;5023842;28;20220;-81
2022/02/16 00:45:26;;;;;;;14.97;7.97;;;4.00;84.70;;;;;;5021336;28;20575;-81
2022/02/16 00:47:52;;;;;;;13.37;8.23;;;4.00;84.60;;;;;;5022640;28;20263;-80
2022/02/16 00:50:23;;;;;;;13.97;8.27;;;4.00;84.80;;;;;;5019629;28;20184;-80
2022/02/16 00:52:48;;;;;;;15.00;8.73;;;4.00;85.00;;;;;;5017390;28;20172;-81
2022/02/16 00:55:14;;;;;;;11.43;8.00;;;4.00;85.10;;;;;;5020319;28;20244;-81
2022/02/16 00:57:40;;;;;;;12.97;8.10;;;3.90;85.10;;;;;;5018134;28;20185;-81
2022/02/16 01:00:06;;;;;;;14.60;9.40;;;4.00;85.10;;;;;;5018528;28;20188;-81
2022/02/16 01:02:32;;;;;;;13.53;8.10;;;3.90;84.90;;;;;;5019428;28;20184;-81
2022/02/16 01:04:58;;;;;;;12.73;7.83;;;3.90;85.50;;;;;;5007412;28;20914;-80
2022/02/16 01:07:23;;;;;;;11.23;7.30;;;3.90;85.70;;;;;;5019591;28;20178;-81
2022/02/16 01:09:49;;;;;;;15.37;7.47;;;3.90;85.60;;;;;;5022987;28;20184;-80
2022/02/16 01:12:15;;;;;;;23.53;9.90;;;3.80;85.80;;;;;;5018172;28;20188;-80
2022/02/16 01:14:42;;;;;;;14.53;8.13;;;3.80;85.80;;;;;;5016301;28;20712;-81
2022/02/16 01:17:08;;;;;;;16.17;8.77;;;3.80;86.00;;;;;;5017338;28;20204;-81
2022/02/16 01:19:33;;;;;;;19.23;9.50;;;3.80;86.40;;;;;;5013631;28;20223;-80
2022/02/16 01:21:59;;;;;;;16.77;9.43;;;3.70;86.20;;;;;;5016373;28;20192;-80
2022/02/16 01:24:25;;;;;;;15.10;8.37;;;3.70;86.00;;;;;;5011500;28;20271;-80
2022/02/16 01:26:51;;;;;;;10.63;8.43;;;3.60;86.30;;;;;;5014270;28;20181;-80
2022/02/16 01:29:17;;;;;;;14.37;8.53;;;3.60;86.50;;;;;;5017373;28;20173;-80
2022/02/16 01:31:42;;;;;;;10.10;7.13;;;3.60;86.70;;;;;;5018031;28;20973;-80
2022/02/16 01:34:08;;;;;;;11.00;7.37;;;3.60;86.60;;;;;;5017165;28;20315;-80
2022/02/16 01:36:34;;;;;;;17.57;9.13;;;3.60;86.20;;;;;;5015238;28;20275;-80
2022/02/16 01:39:00;;;;;;;11.93;8.00;;;3.60;86.50;;;;;;5016087;28;20396;-81
2022/02/16 01:41:26;;;;;;;11.27;7.60;;;3.60;86.30;;;;;;5016373;28;20189;-80
2022/02/16 01:43:53;;;;;;;11.37;7.73;;;3.50;86.60;;;;;;5016268;28;20237;-81
2022/02/16 01:46:20;;;;;;;15.33;7.90;;;3.50;86.70;;;;;;5021951;28;20215;-80
2022/02/16 01:48:46;;;;;;;16.07;7.87;;;3.60;86.60;;;;;;5013543;28;20188;-80
2022/02/16 01:51:12;;;;;;;11.03;6.93;;;3.50;86.40;;;;;;5016241;28;20184;-80
2022/02/16 01:53:38;;;;;;;15.40;8.20;;;3.50;86.40;;;;;;5019252;28;20275;-80
2022/02/16 01:56:05;;;;;;;10.20;7.70;;;3.50;86.40;;;;;;5015591;28;20743;-80
2022/02/16 01:58:35;;;;;;;11.40;7.73;;;3.60;86.30;;;;;;5019655;28;20185;-80
2022/02/16 02:01:03;;;;;;;12.63;8.10;;;3.50;86.00;;;;;;5014434;28;20595;-80
2022/02/16 02:03:29;;;;;;;20.10;8.43;;;3.50;86.20;;;;;;5019686;28;20584;-79
2022/02/16 02:05:55;;;;;;;13.67;7.63;;;3.50;86.40;;;;;;5016673;28;20220;-79
2022/02/16 02:08:22;;;;;;;19.60;8.37;;;3.50;86.80;;;;;;5021566;28;20828;-79
2022/02/16 02:10:48;;;;;;;12.67;7.17;;;3.40;87.00;;;;;;5015711;28;20185;-79
2022/02/16 02:13:18;;;;;;;12.93;6.90;;;3.40;87.00;;;;;;5014537;28;20220;-80
2022/02/16 02:15:44;;;;;;;16.30;9.00;;;3.40;87.00;;;;;;5016560;28;20216;-80
2022/02/16 02:18:17;;;;;;;15.00;7.73;;;3.40;86.90;;;;;;5013976;28;20199;-80
2022/02/16 02:20:44;;;;;;;12.50;7.47;;;3.40;86.80;;;;;;5013031;28;20188;-79
2022/02/16 02:23:11;;;;;;;12.03;6.57;;;3.40;86.70;;;;;;5016429;28;20303;-81
2022/02/16 02:25:44;;;;;;;10.13;7.73;;;3.50;86.70;;;;;;5014184;28;20189;-80
2022/02/16 02:28:10;;;;;;;11.70;6.90;;;3.50;86.50;;;;;;5021828;28;20771;-81
2022/02/16 02:30:35;;;;;;;12.23;7.50;;;3.50;86.60;;;;;;5023182;28;20180;-80
2022/02/16 02:33:01;;;;;;;15.63;7.00;;;3.50;86.60;;;;;;5020733;28;20263;-80
2022/02/16 02:35:27;;;;;;;11.57;7.37;;;3.50;86.80;;;;;;5020016;28;20715;-80
2022/02/16 02:37:52;;;;;;;12.03;6.77;;;3.50;86.80;;;;;;5013421;28;20197;-80
2022/02/16 02:40:18;;;;;;;11.87;8.60;;;3.50;86.70;;;;;;5014319;28;20185;-80
2022/02/16 02:42:44;;;;;;;13.57;8.50;;;3.50;86.60;;;;;;5013416;28;20694;-80
2022/02/16 02:45:10;;;;;;;13.50;8.23;;;3.50;86.90;;;;;;5020900;28;20651;-81
2022/02/16 02:47:37;;;;;;;18.07;9.40;;;3.50;86.80;;;;;;5017537;28;20224;-80
2022/02/16 02:50:04;;;;;;;20.47;8.80;;;3.50;86.90;;;;;;5013423;28;20208;-80
2022/02/16 02:52:31;;;;;;;16.60;8.23;;;3.50;87.20;;;;;;5017068;28;20185;-80
2022/02/16 02:54:58;;;;;;;18.60;7.87;;;3.50;87.00;;;;;;5011766;28;20722;-81
2022/02/16 02:57:23;;;;;;;18.23;7.80;;;3.50;86.90;;;;;;5020730;28;20177;-81
2022/02/16 02:59:49;;;;;;;16.20;8.97;;;3.50;86.90;;;;;;5021309;28;20268;-81
2022/02/16 03:02:15;;;;;;;19.97;9.00;;;3.50;87.00;;;;;;5021456;28;20785;-81
2022/02/16 03:04:40;;;;;;;10.17;7.73;;;3.50;86.90;;;;;;5023465;28;20215;-81
2022/02/16 03:07:06;;;;;;;14.37;8.73;;;3.40;87.10;;;;;;5021119;28;20239;-82
2022/02/16 03:09:32;;;;;;;10.67;8.47;;;3.30;87.30;;;;;;5015582;28;20196;-81
2022/02/16 03:11:58;;;;;;;15.90;8.10;;;3.30;87.70;;;;;;5020538;28;20181;-80
2022/02/16 03:14:23;;;;;;;14.13;8.17;;;3.30;88.10;;;;;;5013219;28;20192;-80
2022/02/16 03:16:49;;;;;;;11.23;7.10;;;3.20;88.00;;;;;;5015847;28;20173;-80
2022/02/16 03:19:15;;;;;;;8.73;6.73;;;3.20;88.30;;;;;;5015080;28;20176;-80
2022/02/16 03:21:40;;;;;;;8.27;6.27;;;3.30;88.00;;;;;;5014048;28;20181;-81
2022/02/16 03:24:07;;;;;;;13.17;7.43;;;3.30;88.00;;;;;;5019299;28;20216;-81
2022/02/16 03:26:33;;;;;;;11.40;7.43;;;3.40;87.90;;;;;;5014045;28;20540;-81
2022/02/16 03:28:59;;;;;;;8.80;7.00;;;3.40;87.50;;;;;;5013504;28;20189;-80
2022/02/16 03:31:25;;;;;;;14.53;7.60;;;3.40;87.80;;;;;;5012182;28;20553;-81
2022/02/16 03:33:50;;;;;;;9.10;6.90;;;3.40;87.70;;;;;;5010052;28;20189;-80
2022/02/16 03:36:16;;;;;;;9.73;7.20;;;3.40;87.50;;;;;;5010390;28;20193;-81
2022/02/16 03:38:42;;;;;;;9.27;6.00;;;3.50;87.50;;;;;;5005883;28;20204;-81
2022/02/16 03:41:08;;;;;;;10.70;6.57;;;3.50;87.50;;;;;;5002272;28;20520;-81
2022/02/16 03:43:33;;;;;;;11.33;6.83;;;3.50;87.60;;;;;;5008170;28;20297;-81
2022/02/16 03:45:59;;;;;;;8.87;6.80;;;3.50;87.40;;;;;;5006083;28;20688;-81
2022/02/16 03:48:25;;;;;;;12.43;6.80;;;3.50;87.60;;;;;;5007163;28;20181;-81
2022/02/16 03:50:50;;;;;;;10.07;6.30;;;3.60;87.60;;;;;;5006761;28;20597;-81
2022/02/16 03:53:17;;;;;;;12.93;7.53;;;3.70;87.40;;;;;;5009414;28;20192;-81
2022/02/16 03:55:43;;;;;;;12.60;6.77;;;3.70;87.40;;;;;;5005067;28;20186;-81
2022/02/16 03:58:09;;;;;;;13.30;6.43;;;3.70;87.20;;;;;;5007905;28;20188;-81
2022/02/16 04:00:35;;;;;;;8.17;5.37;;;3.70;87.00;;;;;;5010283;28;20181;-82
2022/02/16 04:03:10;;;;;;;9.17;7.43;;;3.80;86.80;;;;;;5015070;28;20773;-81
2022/02/16 04:05:39;;;;;;;10.83;6.63;;;3.70;86.50;;;;;;5011349;28;20187;-81
2022/02/16 04:08:05;;;;;;;9.10;6.00;;;3.70;86.50;;;;;;5015482;28;20195;-80
2022/02/16 04:10:31;;;;;;;11.27;7.07;;;3.80;86.60;;;;;;5017066;28;20568;-80
2022/02/16 04:12:56;;;;;;;11.73;7.20;;;3.80;86.80;;;;;;5013336;28;20177;-80
2022/02/16 04:15:22;;;;;;;12.33;6.63;;;3.80;87.10;;;;;;5019526;28;20270;-79
2022/02/16 04:17:48;;;;;;;9.77;7.73;;;3.80;87.00;;;;;;5014314;28;20183;-80
2022/02/16 04:20:13;;;;;;;11.00;7.00;;;3.80;86.90;;;;;;5017070;28;20185;-80
2022/02/16 04:22:43;;;;;;;9.43;6.37;;;3.80;87.30;;;;;;5020842;28;20184;-80
2022/02/16 04:25:10;;;;;;;10.90;6.63;;;3.80;87.10;;;;;;5022632;28;20185;-80
2022/02/16 04:27:36;;;;;;;12.47;6.60;;;3.90;86.80;;;;;;5014840;28;20180;-79
2022/02/16 04:30:03;;;;;;;7.73;5.83;;;3.90;86.90;;;;;;5017478;28;20181;-79
2022/02/16 04:32:29;;;;;;;9.17;6.97;;;3.90;86.90;;;;;;5015314;28;20181;-80
2022/02/16 04:34:54;;;;;;;9.20;6.47;;;3.90;87.00;;;;;;5012562;28;20251;-81
2022/02/16 04:37:20;;;;;;;10.87;6.90;;;3.90;87.00;;;;;;5014895;28;20212;-82
2022/02/16 04:39:46;;;;;;;8.00;6.20;;;3.80;87.20;;;;;;5017520;28;20187;-81
2022/02/16 04:42:12;;;;;;;13.13;7.03;;;3.90;87.10;;;;;;5013127;28;20663;-81
2022/02/16 04:44:38;;;;;;;12.67;6.80;;;3.90;87.00;;;;;;5014135;28;20223;-80
2022/02/16 04:47:04;;;;;;;10.07;6.03;;;3.90;86.90;;;;;;5017218;28;20668;-81
2022/02/16 04:49:30;;;;;;;7.33;5.90;;;4.00;86.70;;;;;;5010515;28;20217;-80
2022/02/16 04:51:56;;;;;;;11.30;5.83;;;4.00;86.60;;;;;;5015378;28;20216;-80
2022/02/16 04:54:21;;;;;;;8.20;6.73;;;4.00;86.50;;;;;;5015913;28;20935;-81
2022/02/16 04:56:47;;;;;;;13.10;6.93;;;4.00;86.50;;;;;;5011758;28;20235;-82
2022/02/16 04:59:13;;;;;;;16.20;8.37;;;4.10;86.70;;;;;;5013386;28;20675;-79
2022/02/16 05:01:38;;;;;;;10.17;6.37;;;4.00;86.40;;;;;;5014084;28;20267;-79
2022/02/16 05:04:04;;;;;;;11.93;6.10;;;4.10;86.50;;;;;;5009844;28;20275;-81
2022/02/16 05:06:30;;;;;;;11.93;6.80;;;4.10;86.30;;;;;;5014286;28;20753;-80
2022/02/16 05:08:57;;;;;;;11.60;6.67;;;4.10;86.20;;;;;;5012051;28;20317;-80
2022/02/16 05:11:23;;;;;;;11.07;7.37;;;4.10;86.10;;;;;;5012328;28;20231;-80
2022/02/16 05:13:49;;;;;;;10.37;6.73;;;4.20;86.10;;;;;;5017473;28;20181;-80
2022/02/16 05:16:15;;;;;;;10.03;6.80;;;4.20;86.00;;;;;;5015119;28;20207;-80
2022/02/16 05:18:41;;;;;;;10.93;6.83;;;4.20;85.90;;;;;;5015664;28;20187;-80
2022/02/16 05:21:06;;;;;;;8.93;7.07;;;4.20;86.00;;;;;;5015368;28;20685;-80
2022/02/16 05:23:32;;;;;;;11.57;6.70;;;4.10;86.30;;;;;;5011966;28;20209;-80
2022/02/16 05:25:58;;;;;;;15.73;7.20;;;4.10;86.30;;;;;;5016113;28;20208;-81
2022/02/16 05:28:24;;;;;;;12.70;7.03;;;4.20;86.20;;;;;;5026404;28;20189;-81
2022/02/16 05:30:49;;;;;;;12.20;7.13;;;4.20;86.20;;;;;;5023706;28;20240;-81
2022/02/16 05:33:15;;;;;;;11.47;6.97;;;4.20;86.30;;;;;;5022578;28;20185;-80
2022/02/16 05:35:41;;;;;;;11.77;6.53;;;4.20;86.20;;;;;;5017650;28;20371;-80
2022/02/16 05:38:07;;;;;;;7.90;6.03;;;4.20;86.10;;;;;;5012218;28;20204;-80
2022/02/16 05:40:32;;;;;;;13.33;7.60;;;4.30;86.00;;;;;;5013018;28;20267;-80
2022/02/16 05:42:59;;;;;;;17.13;9.90;;;4.30;86.00;;;;;;5009295;28;20184;-80
2022/02/16 05:45:25;;;;;;;15.60;9.50;;;4.40;86.00;;;;;;5016508;28;20244;-81
2022/02/16 05:47:51;;;;;;;12.10;9.10;;;4.40;85.90;;;;;;5009509;28;20188;-81
2022/02/16 05:50:17;;;;;;;13.20;7.43;;;4.40;85.90;;;;;;5009484;28;20193;-81
2022/02/16 05:52:45;;;;;;;16.53;8.53;;;4.50;85.90;;;;;;5012090;28;20189;-80
2022/02/16 05:55:11;;;;;;;16.17;9.17;;;4.50;85.80;;;;;;5015261;28;20199;-81
2022/02/16 05:57:37;;;;;;;13.70;7.60;;;4.50;85.80;;;;;;5012228;28;20180;-79
2022/02/16 06:00:05;;;;;;;8.97;7.27;;;4.60;85.80;;;;;;5011936;28;20192;-80
2022/02/16 06:02:31;;;;;;;15.33;8.60;;;4.60;85.60;;;;;;5005130;28;20269;-80
2022/02/16 06:04:57;;;;;;;10.43;8.37;;;4.60;85.60;;;;;;5017121;28;20216;-80
2022/02/16 06:07:23;;;;;;;15.03;8.87;;;4.70;85.60;;;;;;5012766;28;20180;-77
2022/02/16 06:09:48;;;;;;;15.57;9.00;;;4.70;85.70;;;;;;5017486;28;20295;-78
2022/02/16 06:12:14;;;;;;;13.93;7.80;;;4.70;85.70;;;;;;5007860;28;20682;-77
2022/02/16 06:14:40;;;;;;;12.43;8.50;;;4.80;85.60;;;;;;5012156;28;20181;-77
2022/02/16 06:17:05;;;;;;;14.50;8.37;;;4.80;85.60;;;;;;5009038;28;20296;-78
2022/02/16 06:19:31;;;;;;;17.80;9.27;;;4.90;85.40;;;;;;5006411;28;20185;-78
2022/02/16 06:21:57;;;;;;;15.30;9.47;;;4.90;85.10;;;;;;5013853;28;20862;-79
2022/02/16 06:24:22;;;;;;;22.80;9.50;;;5.00;85.30;;;;;;5006929;28;20217;-78
2022/02/16 06:26:48;;;;;;;16.07;8.47;;;5.00;85.30;;;;;;5009687;28;20197;-78
2022/02/16 06:29:14;;;;;;;19.73;9.73;;;5.00;85.20;;;;;;5010823;28;20632;-80
2022/02/16 06:31:40;;;;;;;18.93;11.80;;;5.00;85.00;;;;;;5011396;28;20204;-78
2022/02/16 06:34:05;;;;;;;16.50;9.37;;;5.10;85.00;;;;;;5008359;28;20185;-79
2022/02/16 06:36:31;;;;;;;19.50;8.77;;;5.10;84.80;;;;;;5008426;28;20700;-79
2022/02/16 06:38:57;;;;;;;18.40;10.60;;;5.20;84.90;;;;;;5010100;28;20246;-79
2022/02/16 06:41:22;;;;;;;17.13;10.57;;;5.20;84.80;;;;;;5017077;28;20286;-79
2022/02/16 06:43:48;;;;;;;20.37;10.03;;;5.30;84.60;;;;;;5014482;28;20250;-80
2022/02/16 06:46:15;;;;;;;17.33;9.43;;;5.40;84.50;;;;;;5007354;28;20181;-81
2022/02/16 06:48:43;;;;;;;20.87;9.53;;;5.40;84.60;;;;;;5011751;28;20184;-79
2022/02/16 06:51:09;;;;;;;20.33;9.63;;;;;;;;;;5010657;28;20745;-80
2022/02/16 06:53:34;;;;;;;18.83;9.40;;;5.50;84.50;;;;;;5014461;28;20193;-79
2022/02/16 06:56:00;;;;;;;16.40;10.07;;;5.60;84.50;;;;;;5016483;28;20540;-79
2022/02/16 06:58:26;;;;;;;19.90;10.43;;;5.70;84.30;;;;;;5006979;28;20185;-81
2022/02/16 07:00:52;;;;;;;14.77;8.83;;;5.70;84.20;;;;;;5016503;28;20180;-76
2022/02/16 07:03:18;;;;;;;20.80;9.87;;;5.80;83.90;;;;;;5010989;28;20213;-76
2022/02/16 07:05:44;;;;;;;19.03;9.73;;;5.80;84.00;;;;;;5017692;28;20189;-80
2022/02/16 07:08:10;;;;;;;13.57;9.60;;;5.80;83.50;;;;;;5010921;28;20188;-78
2022/02/16 07:10:35;;;;;;;23.70;9.90;;;5.90;83.40;;;;;;5015200;28;20192;-78
2022/02/16 07:13:01;;;;;;;14.93;9.70;;;5.90;83.20;;;;;;5010256;28;20208;-78
2022/02/16 07:15:27;;;;;;;18.70;8.97;;;5.90;83.30;;;;;;5010426;28;20189;-78
2022/02/16 07:17:54;;;;;;;21.37;10.23;;;6.10;83.60;;;;;;5003466;28;20208;-77
2022/02/16 07:20:20;;;;;;;12.90;8.57;;;;;;;;;;5012460;28;20550;-77
2022/02/16 07:22:47;;;;;;;13.47;9.30;;;6.40;82.70;;;;;;5007721;28;20181;-78
2022/02/16 07:25:14;;;;;;;17.60;9.20;;;6.40;82.70;;;;;;5009534;28;20181;-78
2022/02/16 07:27:40;;;;;;;15.00;9.10;;;6.50;82.60;;;;;;5010267;28;20797;-76
2022/02/16 07:30:09;;;;;;;14.97;8.33;;;6.70;82.70;;;;;;5011028;28;20181;-77
2022/02/16 07:32:40;;;;;;;20.57;9.73;;;6.80;82.60;;;;;;5007662;28;20184;-76
2022/02/16 07:35:07;;;;;;;16.63;9.20;;;7.00;82.30;;;;;;5011302;28;20211;-75
2022/02/16 07:37:33;;;;;;;10.70;7.80;;;7.30;81.60;;;;;;5009770;28;20626;-75
2022/02/16 07:39:59;;;;;;;13.47;8.40;;;7.30;81.60;;;;;;5015347;28;20715;-76
2022/02/16 07:42:28;;;;;;;13.33;8.33;;;7.50;80.30;;;;;;5016608;28;20187;-75
2022/02/16 07:44:54;;;;;;;23.73;8.57;;;7.50;79.90;;;;;;5012131;28;20282;-75
2022/02/16 07:47:21;;;;;;;18.13;8.93;;;7.60;79.00;;;;;;5010626;28;20311;-74
2022/02/16 07:49:46;;;;;;;18.30;8.53;;;7.70;78.70;;;;;;5015405;28;20195;-75
2022/02/16 07:52:13;;;;;;;14.50;7.93;;;7.70;78.80;;;;;;5010755;28;20572;-75
2022/02/16 07:54:38;;;;;;;14.20;8.80;;;7.80;78.90;;;;;;5015878;28;20184;-75
2022/02/16 07:57:07;;;;;;;16.20;9.20;;;7.80;78.80;;;;;;5011220;28;20192;-75
2022/02/16 07:59:32;;;;;;;11.80;8.20;;;7.90;78.40;;;;;;5014685;28;20567;-74
2022/02/16 08:01:58;;;;;;;12.53;8.23;;;7.90;78.10;;;;;;5008647;28;20184;-74
2022/02/16 08:04:27;;;;;;;13.23;8.80;;;7.90;77.60;;;;;;5011542;28;20936;-75
2022/02/16 08:06:53;;;;;;;14.83;8.87;;;7.90;77.50;;;;;;5014281;28;20181;-75
2022/02/16 08:09:20;;;;;;;14.23;8.17;;;7.90;77.30;;;;;;5015754;28;20772;-75
2022/02/16 08:11:46;;;;;;;9.23;7.70;;;7.90;77.20;;;;;;5014086;28;20188;-75
2022/02/16 08:14:13;;;;;;;9.73;7.37;;;7.90;77.30;;;;;;5009487;28;20216;-75
2022/02/16 08:16:40;;;;;;;13.23;8.53;;;7.90;76.80;;;;;;5008320;28;20188;-76
2022/02/16 08:19:08;;;;;;;15.00;8.57;;;7.90;76.80;;;;;;5010395;28;20733;-75
2022/02/16 08:21:34;;;;;;;10.60;7.10;;;7.90;76.90;;;;;;5016874;28;20256;-76
2022/02/16 08:24:01;;;;;;;16.27;8.43;;;7.90;77.20;;;;;;5010313;28;20216;-75
2022/02/16 08:26:27;;;;;;;12.23;8.00;;;8.00;77.40;;;;;;5010053;28;20185;-75
2022/02/16 08:28:53;;;;;;;12.93;8.40;;;8.00;77.10;;;;;;5014051;28;20184;-75
2022/02/16 08:31:19;;;;;;;17.80;7.97;;;8.10;77.30;;;;;;5011068;28;20185;-76
2022/02/16 08:33:44;;;;;;;13.10;7.93;;;8.20;77.40;;;;;;5010897;28;20251;-75
2022/02/16 08:36:11;;;;;;;14.80;8.77;;;8.20;76.80;;;;;;5011600;28;20185;-75
2022/02/16 08:38:38;;;;;;;11.40;8.17;;;8.20;76.20;;;;;;5008956;28;20200;-76
2022/02/16 08:41:04;;;;;;;10.63;7.03;;;8.20;75.90;;;;;;5009899;28;20193;-75
2022/02/16 08:43:30;;;;;;;12.10;8.20;;;8.30;76.50;;;;;;5006234;28;20212;-75
2022/02/16 08:45:58;;;;;;;10.00;7.17;;;8.40;76.10;;;;;;5008813;28;20191;-74
2022/02/16 08:48:26;;;;;;;13.30;8.47;;;8.50;76.30;;;;;;5011254;28;20200;-74
2022/02/16 08:50:53;;;;;;;14.33;8.43;;;8.60;76.30;;;;;;5015380;28;20246;-75
2022/02/16 08:53:19;;;;;;;20.63;8.97;;;8.70;75.70;;;;;;5011344;28;20984;-75
2022/02/16 08:55:45;;;;;;;13.83;8.73;;;8.80;75.50;;;;;;5009906;28;20259;-74
2022/02/16 08:58:12;;;;;;;14.70;8.53;;;8.90;75.10;;;;;;5007045;28;20184;-73
2022/02/16 09:00:39;;;;;;;13.90;7.93;;;9.00;75.10;;;;;;5008148;28;20184;-74
2022/02/16 09:03:05;;;;;;;15.07;9.90;;;9.10;75.30;;;;;;5010999;28;20215;-74
2022/02/16 09:05:31;;;;;;;14.33;10.10;;;9.10;74.70;;;;;;5010531;28;20172;-73
2022/02/16 09:07:57;;;;;;;22.10;9.13;;;9.10;74.40;;;;;;5007525;28;20197;-74
2022/02/16 09:10:23;;;;;;;16.73;8.50;;;9.20;74.40;;;;;;5010631;28;20180;-74
2022/02/16 09:12:48;;;;;;;16.40;8.27;;;9.30;74.70;;;;;;5007307;28;20258;-73
2022/02/16 09:15:14;;;;;;;13.13;9.57;;;9.30;74.70;;;;;;5005092;28;21058;-74
2022/02/16 09:17:40;;;;;;;15.63;9.37;;;9.40;74.10;;;;;;5007775;28;20289;-74
2022/02/16 09:20:06;;;;;;;16.10;9.70;;;9.40;74.10;;;;;;5012300;28;20271;-72
2022/02/16 09:22:34;;;;;;;26.17;9.00;;;9.50;74.30;;;;;;5008473;28;20189;-74
2022/02/16 09:24:59;;;;;;;18.30;10.67;;;9.50;74.30;;;;;;5007524;28;20227;-74
2022/02/16 09:27:26;;;;;;;16.30;10.17;;;9.70;74.40;;;;;;5008389;28;20276;-74
2022/02/16 09:29:52;;;;;;;16.50;10.70;;;9.80;74.40;;;;;;5013354;28;20188;-75
2022/02/16 09:32:19;;;;;;;21.30;11.03;;;9.90;74.30;;;;;;5013670;28;20567;-75
2022/02/16 09:34:45;;;;;;;18.80;10.80;;;10.00;74.10;;;;;;5005383;28;20188;-75
2022/02/16 09:37:11;;;;;;;17.98;11.75;;;10.10;74.00;;;;;;5010727;28;20251;-75
2022/02/16 09:39:38;;;;;;;19.90;12.40;;;10.30;73.70;;;;;;5010166;28;20646;-74
2022/02/16 09:42:04;;;;;;;21.77;11.87;;;10.40;73.20;;;;;;5008514;28;21075;-74
2022/02/16 09:45:03;;;;;;;23.05;12.40;;;10.50;72.80;;;;;;5005212;28;20215;-74
2022/02/16 09:47:33;;;;;;;21.92;12.38;;;10.60;72.70;;;;;;5011382;28;20180;-75
2022/02/16 09:50:02;;;;;;;23.60;15.25;;;10.70;72.60;;;;;;5005667;28;20278;-74
2022/02/16 09:52:27;;;;;;;25.75;14.15;;;10.70;72.00;;;;;;5012327;28;20211;-75
2022/02/16 09:54:53;;;;;;;21.47;13.73;;;10.80;71.60;;;;;;5010020;28;20499;-75
2022/02/16 09:57:19;;;;;;;25.45;12.55;;;10.80;72.00;;;;;;5009444;28;20605;-75
2022/02/16 09:59:46;;;;;;;28.20;13.55;;;10.80;72.10;;;;;;5009501;28;20192;-75
2022/02/16 10:02:16;;;;;;;23.02;13.23;;;10.80;72.20;;;;;;5010910;28;20729;-75
2022/02/16 10:04:54;;;;;;;25.60;12.77;;;10.80;71.60;;;;;;5011625;28;21562;-75
2022/02/16 10:07:26;;;;;;;20.95;10.80;;;10.90;71.80;;;;;;5009763;28;20199;-75
2022/02/16 10:09:52;;;;;;;22.00;13.05;;;10.90;71.60;;;;;;5009264;28;20208;-76
2022/02/16 10:12:18;;;;;;;23.40;13.25;;;10.80;71.40;;;;;;5013660;28;20188;-75
2022/02/16 10:14:45;;;;;;;22.77;13.57;;;10.80;71.60;;;;;;5016190;28;20199;-76
2022/02/16 10:17:22;;;;;;;25.30;13.95;;;10.70;71.60;;;;;;5013797;28;20195;-75
2022/02/16 10:19:50;;;;;;;19.63;13.07;;;10.70;71.60;;;;;;5012095;28;20184;-74
2022/02/16 10:22:21;;;;;;;21.92;12.50;;;10.80;72.10;;;;;;5012787;28;20177;-76
2022/02/16 10:24:48;;;;;;;19.17;13.15;;;10.80;72.00;;;;;;5012692;28;20248;-74
2022/02/16 10:27:15;;;;;;;26.38;14.95;;;10.80;71.80;;;;;;5016584;28;20260;-75
2022/02/16 10:29:42;;;;;;;29.13;14.93;;;10.80;71.70;;;;;;5010112;28;20320;-75
2022/02/16 10:32:09;;;;;;;24.38;14.68;;;10.80;72.30;;;;;;5008950;28;20274;-74
2022/02/16 10:34:54;;;;;;;24.80;14.98;;;10.90;71.80;;;;;;5008227;28;20185;-75
2022/02/16 10:37:27;;;;;;;24.85;15.63;;;10.90;71.40;;;;;;5012197;28;20205;-74
2022/02/16 10:40:10;;;;;;;23.02;14.80;;;11.00;71.40;;;;;;5007444;28;20185;-77
2022/02/16 10:42:37;;;;;;;27.55;15.68;;;11.10;71.10;;;;;;5007624;28;20869;-73
2022/02/16 10:45:09;;;;;;;23.25;14.32;;;11.30;71.30;;;;;;5007540;28;20240;-75
2022/02/16 10:47:56;;;;;;;28.20;14.95;;;11.60;71.30;;;;;;5010696;28;20324;-75
2022/02/16 10:50:24;;;;;;;25.60;15.70;;;12.30;70.60;;;;;;5011878;28;20176;-75
2022/02/16 10:53:04;;;;;;;24.92;14.38;;;12.80;69.30;;;;;;5015134;28;20671;-75
2022/02/16 10:55:49;;;;;;;27.10;14.80;;;13.30;68.70;;;;;;5010361;28;21076;-74
2022/02/16 10:58:20;;;;;;;22.92;13.88;;;13.90;67.20;;;;;;5009542;28;20599;-74
2022/02/16 11:00:49;;;;;;;23.75;14.23;;;14.50;67.40;;;;;;5012752;28;20258;-75
2022/02/16 11:03:32;;;;;;;24.23;13.60;;;15.20;67.30;;;;;;5016284;28;20216;-74
2022/02/16 11:06:01;;;;;;;20.60;12.32;;;16.00;65.80;;;;;;5008469;28;20625;-74
2022/02/16 11:08:30;;;;;;;19.65;12.43;;;16.90;64.40;;;;;;5010400;28;20659;-74
2022/02/16 11:10:57;;;;;;;33.67;14.20;;;17.90;63.10;;;;;;5011876;28;20188;-75
2022/02/16 11:13:27;;;;;;;20.98;13.23;;;18.90;60.50;;;;;;5008333;28;20197;-76
2022/02/16 11:15:53;;;;;;;23.65;13.70;;;19.70;59.20;;;;;;5012941;28;20662;-76
2022/02/16 11:18:24;;;;;;;21.45;12.80;;;20.30;57.30;;;;;;5009753;28;20205;-74
2022/02/16 11:21:05;;;;;;;23.02;13.23;;;20.40;56.30;;;;;;5005752;28;20180;-75
2022/02/16 11:23:42;;;;;;;17.33;11.07;;;20.50;56.00;;;;;;5003008;28;20221;-74
2022/02/16 11:26:27;;;;;;;25.95;12.50;;;20.90;56.70;;;;;;5009946;28;20199;-75
2022/02/16 11:28:52;;;;;;;24.20;11.80;;;21.50;56.00;;;;;;5011488;28;20882;-76
2022/02/16 11:31:30;;;;;;;15.40;12.50;;;21.90;55.20;;;;;;5021126;28;20177;-76
2022/02/16 11:34:11;;;;;;;15.63;11.52;;;22.30;53.30;;;;;;5053941;28;20223;-75
2022/02/16 11:36:54;;;;;;;23.70;12.90;;;22.10;51.80;;;;;;5024190;28;20192;-75
2022/02/16 11:39:50;;;;;;;22.58;12.95;;;21.60;52.30;;;;;;5023899;28;20199;-75
2022/02/16 11:42:20;;;;;;;18.65;12.30;;;21.20;52.70;;;;;;5012807;28;20277;-75
2022/02/16 11:44:51;;;;;;;15.23;12.07;;;20.70;53.20;;;;;;5013485;28;20212;-75
2022/02/16 11:47:35;;;;;;;16.70;12.57;;;20.30;54.40;;;;;;5019578;28;20527;-75
2022/02/16 11:50:16;;;;;;;22.50;12.68;;;19.90;54.20;;;;;;5025053;28;20195;-75
2022/02/16 11:52:50;;;;;;;16.35;11.48;;;19.50;55.70;;;;;;5016561;28;20177;-75
2022/02/16 11:55:28;;;;;;;18.45;11.93;;;19.20;56.20;;;;;;5016469;28;20184;-75
2022/02/16 11:58:12;;;;;;;25.88;13.43;;;19.00;56.50;;;;;;5017638;28;20230;-76
2022/02/16 12:00:56;;;;;;;18.60;11.98;;;18.80;56.70;;;;;;5022103;28;20271;-75
2022/02/16 12:03:28;;;;;;;17.13;12.18;;;19.00;56.60;;;;;;5020307;28;20223;-76
2022/02/16 12:06:08;;;;;;;13.60;10.98;;;19.30;56.80;;;;;;5014584;28;20198;-75
2022/02/16 12:08:44;;;;;;;13.70;10.98;;;19.60;56.30;;;;;;5021738;28;20219;-75
2022/02/16 12:11:12;;;;;;;16.67;11.10;;;20.00;56.00;;;;;;5019109;28;20275;-75
2022/02/16 12:13:49;;;;;;;16.75;10.82;;;20.50;54.80;;;;;;5020014;28;20185;-75
2022/02/16 12:16:45;;;;;;;16.65;10.80;;;20.60;54.50;;;;;;5019331;28;20571;-75
2022/02/16 12:19:15;;;;;;;16.25;10.88;;;20.70;53.40;;;;;;5019546;28;20713;-76
2022/02/16 12:21:47;;;;;;;13.00;9.73;;;20.60;53.40;;;;;;5028487;28;20211;-75
2022/02/16 12:24:20;;;;;;;14.85;10.07;;;20.40;54.00;;;;;;5028928;28;20217;-77
2022/02/16 12:26:49;;;;;;;12.55;9.52;;;20.10;54.30;;;;;;5032604;28;20196;-78
2022/02/16 12:29:18;;;;;;;10.18;8.40;;;19.80;55.00;;;;;;5021819;28;20195;-79
2022/02/16 12:31:49;;;;;;;11.60;8.50;;;19.40;55.00;;;;;;5019231;28;20259;-76
2022/02/16 12:34:27;;;;;;;12.95;8.25;;;19.00;55.80;;;;;;5018615;28;20210;-76
2022/02/16 12:37:01;;;;;;;11.95;8.63;;;18.70;56.10;;;;;;5017817;28;20185;-75
2022/02/16 12:39:28;;;;;;;13.90;9.70;;;18.50;56.70;;;;;;5015572;28;20216;-75
2022/02/16 12:41:59;;;;;;;12.80;9.60;;;18.30;56.80;;;;;;5021402;28;20337;-76
2022/02/16 12:44:30;;;;;;;17.00;10.18;;;18.30;57.10;;;;;;5020594;28;20213;-74
2022/02/16 12:46:55;;;;;;;13.50;9.70;;;18.30;57.50;;;;;;5019589;28;20663;-76